createdAt,value
2022-11-16T00:01:05.005Z,46.70
2022-11-16T00:04:07.966Z,36.65
2022-11-16T00:07:12.175Z,47.45
2022-11-16T00:10:16.091Z,45.13
2022-11-16T00:13:20.381Z,75.07
2022-11-16T00:16:23.927Z,69.33
2022-11-16T00:19:28.188Z,76.43
2022-11-16T00:22:31.887Z,63.95
2022-11-16T00:25:35.508Z,64.73
2022-11-16T00:28:39.088Z,54.30
2022-11-16T00:31:45.426Z,39.28
2022-11-16T00:34:49.049Z,74.50
2022-11-16T00:37:53.228Z,72.00
2022-11-16T00:40:57.150Z,68.93
2022-11-16T00:44:01.174Z,77.35
2022-11-16T00:47:04.030Z,71.47
2022-11-16T00:50:08.218Z,33.03
2022-11-16T00:53:14.750Z,55.85
2022-11-16T00:56:18.001Z,68.43
2022-11-16T00:59:21.815Z,70.68
2022-11-16T01:02:30.053Z,64.82
2022-11-16T01:05:33.068Z,55.85
2022-11-16T01:08:38.889Z,45.20
2022-11-16T01:12:01.017Z,72.78
2022-11-16T01:15:10.074Z,60.08
2022-11-16T01:18:13.673Z,52.90
2022-11-16T01:21:17.633Z,56.30
2022-11-16T01:24:20.510Z,52.33
2022-11-16T01:27:24.519Z,81.27
2022-11-16T01:30:29.305Z,87.22
2022-11-16T01:33:38.998Z,85.30
2022-11-16T01:36:46.808Z,66.25
2022-11-16T01:39:52.053Z,42.30
2022-11-16T01:42:55.761Z,51.83
2022-11-16T01:45:59.759Z,58.53
2022-11-16T01:49:16.793Z,77.67
2022-11-16T01:52:26.197Z,90.07
2022-11-16T01:55:32.977Z,56.38
2022-11-16T01:58:55.861Z,57.50
2022-11-16T02:02:02.533Z,50.78
2022-11-16T02:05:08.233Z,56.83
2022-11-16T02:08:54.538Z,65.20
2022-11-16T02:12:29.397Z,51.25
2022-11-16T02:15:35.639Z,46.58
2022-11-16T02:19:06.795Z,60.03
2022-11-16T02:22:48.011Z,67.60
2022-11-16T02:26:22.975Z,71.25
2022-11-16T02:29:34.852Z,68.65
2022-11-16T02:32:57.831Z,62.93
2022-11-16T02:36:03.710Z,66.82
2022-11-16T02:39:16.555Z,60.42
2022-11-16T02:42:26.797Z,63.60
2022-11-16T02:45:36.977Z,59.73
2022-11-16T02:48:47.404Z,65.22
2022-11-16T02:51:53.078Z,67.05
2022-11-16T02:54:56.640Z,69.25
2022-11-16T02:58:03.164Z,71.95
2022-11-16T03:01:15.235Z,64.95
2022-11-16T03:04:31.430Z,67.43
2022-11-16T03:08:06.240Z,59.13
2022-11-16T03:11:30.266Z,62.22
2022-11-16T03:15:00.525Z,48.97
2022-11-16T03:18:05.527Z,58.47
2022-11-16T03:21:19.331Z,57.97
2022-11-16T03:24:24.122Z,55.42
2022-11-16T03:27:39.388Z,54.00
2022-11-16T03:30:51.498Z,52.13
2022-11-16T03:33:58.837Z,76.03
2022-11-16T03:37:04.929Z,70.45
2022-11-16T03:40:13.735Z,58.65
2022-11-16T03:43:20.911Z,38.22
2022-11-16T03:46:25.773Z,37.35
2022-11-16T03:49:31.624Z,38.45
2022-11-16T03:52:36.514Z,39.97
2022-11-16T03:55:40.220Z,33.53
2022-11-16T03:58:47.893Z,31.10
2022-11-16T04:01:50.860Z,32.90
2022-11-16T04:05:14.483Z,38.63
2022-11-16T04:08:37.298Z,47.22
2022-11-16T04:12:00.328Z,46.75
2022-11-16T04:15:22.259Z,46.30
2022-11-16T04:18:44.794Z,42.33
2022-11-16T04:22:15.430Z,49.00
2022-11-16T04:25:28.212Z,49.70
2022-11-16T04:28:34.781Z,48.53
2022-11-16T04:31:59.756Z,51.10
2022-11-16T04:35:22.213Z,52.90
2022-11-16T04:38:26.270Z,50.20
2022-11-16T04:41:50.334Z,56.45
2022-11-16T04:45:13.079Z,53.92
2022-11-16T04:48:28.218Z,54.10
2022-11-16T04:51:32.549Z,55.72
2022-11-16T04:54:36.272Z,54.13
2022-11-16T04:57:39.736Z,54.10
2022-11-16T05:00:43.883Z,57.25
2022-11-16T05:03:47.798Z,55.50
2022-11-16T05:06:51.662Z,60.00
2022-11-16T05:09:56.034Z,57.35
2022-11-16T05:12:59.534Z,52.38
2022-11-16T05:16:03.862Z,55.40
2022-11-16T05:19:25.964Z,52.30
2022-11-16T05:22:30.007Z,48.90
2022-11-16T05:25:36.920Z,49.90
2022-11-16T05:28:45.201Z,45.30
2022-11-16T05:31:50.069Z,45.17
2022-11-16T05:34:54.682Z,44.03
2022-11-16T05:37:59.044Z,39.97
2022-11-16T05:41:03.295Z,40.60
2022-11-16T05:44:07.479Z,38.30
2022-11-16T05:47:10.777Z,35.00
2022-11-16T05:50:14.088Z,24.40
2022-11-16T05:53:22.251Z,23.63
2022-11-16T05:56:26.149Z,22.27
2022-11-16T05:59:30.653Z,19.05
2022-11-16T06:02:36.251Z,21.20
2022-11-16T06:05:40.843Z,17.08
2022-11-16T06:08:48.482Z,18.90
2022-11-16T06:11:56.922Z,20.83
2022-11-16T06:15:00.838Z,22.40
2022-11-16T06:18:04.710Z,18.42
2022-11-16T06:21:09.184Z,19.75
2022-11-16T06:24:13.145Z,17.40
2022-11-16T06:27:18.361Z,19.05
2022-11-16T06:30:21.967Z,19.97
2022-11-16T06:33:30.829Z,23.73
2022-11-16T06:36:40.132Z,27.52
2022-11-16T06:39:43.593Z,27.40
2022-11-16T06:42:47.519Z,23.33
2022-11-16T06:45:56.985Z,18.15
2022-11-16T06:49:00.311Z,19.05
2022-11-16T06:52:04.104Z,17.88
2022-11-16T06:55:07.635Z,18.23
2022-11-16T06:58:13.130Z,16.63
2022-11-16T07:01:18.755Z,18.58
2022-11-16T07:04:25.293Z,18.55
2022-11-16T07:07:33.003Z,16.35
2022-11-16T07:10:39.650Z,13.83
2022-11-16T07:13:43.946Z,14.85
2022-11-16T07:16:48.111Z,12.95
2022-11-16T07:19:51.470Z,12.90
2022-11-16T07:22:56.077Z,16.45
2022-11-16T07:26:05.533Z,17.73
2022-11-16T07:29:27.181Z,13.57
2022-11-16T07:32:51.865Z,11.18
2022-11-16T07:36:27.936Z,12.10
2022-11-16T07:39:32.869Z,11.38
2022-11-16T07:42:36.657Z,11.13
2022-11-16T07:45:49.510Z,12.35
2022-11-16T07:48:53.589Z,14.98
2022-11-16T07:52:14.770Z,14.93
2022-11-16T07:55:33.072Z,13.30
2022-11-16T07:58:38.338Z,12.48
2022-11-16T08:01:44.469Z,10.65
2022-11-16T08:04:48.175Z,11.27
2022-11-16T08:07:52.442Z,11.47
2022-11-16T08:11:04.743Z,11.10
2022-11-16T08:14:09.034Z,11.98
2022-11-16T08:17:12.454Z,11.68
2022-11-16T08:20:17.707Z,11.03
2022-11-16T08:23:23.237Z,13.35
2022-11-16T08:26:28.453Z,16.02
2022-11-16T08:29:40.878Z,16.10
2022-11-16T08:32:46.594Z,11.15
2022-11-16T08:36:14.020Z,17.30
2022-11-16T08:39:18.710Z,13.43
2022-11-16T08:42:22.077Z,13.02
2022-11-16T08:45:25.731Z,11.93
2022-11-16T08:48:32.815Z,9.57
2022-11-16T08:51:37.044Z,10.57
2022-11-16T08:54:41.944Z,12.55
2022-11-16T08:57:45.965Z,12.17
2022-11-16T09:00:53.219Z,11.75
2022-11-16T09:03:57.240Z,12.25
2022-11-16T09:07:00.215Z,12.68
2022-11-16T09:10:03.515Z,13.10
2022-11-16T09:13:07.228Z,14.00
2022-11-16T09:16:11.690Z,14.98
2022-11-16T09:19:14.964Z,18.70
2022-11-16T09:22:18.984Z,17.97
2022-11-16T09:25:24.020Z,21.30
2022-11-16T09:28:28.168Z,16.42
2022-11-16T09:31:35.138Z,16.25
2022-11-16T09:34:39.064Z,23.85
2022-11-16T09:37:41.888Z,27.52
2022-11-16T09:40:48.405Z,16.92
2022-11-16T09:44:23.786Z,20.48
2022-11-16T09:47:53.080Z,20.07
2022-11-16T09:51:02.293Z,17.33
2022-11-16T09:54:10.326Z,13.38
2022-11-16T09:57:19.641Z,12.40
2022-11-16T10:00:24.538Z,11.18
2022-11-16T10:03:29.910Z,13.93
2022-11-16T10:07:05.026Z,19.75
2022-11-16T10:10:17.519Z,24.00
2022-11-16T10:13:38.341Z,17.00
2022-11-16T10:17:14.904Z,12.68
2022-11-16T10:20:42.469Z,34.53
2022-11-16T10:23:52.529Z,67.05
2022-11-16T10:26:59.990Z,65.57
2022-11-16T10:30:20.302Z,72.32
2022-11-16T10:33:25.535Z,71.90
2022-11-16T10:36:33.221Z,64.55
2022-11-16T10:39:41.139Z,48.42
2022-11-16T10:42:46.408Z,58.42
2022-11-16T10:46:13.575Z,61.75
2022-11-16T10:49:29.808Z,73.30
2022-11-16T10:52:33.777Z,84.35
2022-11-16T10:55:37.486Z,99.45
2022-11-16T10:59:08.622Z,79.72
2022-11-16T11:02:31.965Z,79.95
2022-11-16T11:05:37.123Z,54.25
2022-11-16T11:08:40.741Z,55.30
2022-11-16T11:12:35.967Z,57.63
2022-11-16T11:15:41.317Z,65.43
2022-11-16T11:18:45.318Z,61.47
2022-11-16T11:21:49.985Z,61.47
2022-11-16T11:24:54.773Z,90.97
2022-11-16T11:28:32.369Z,77.17
2022-11-16T11:31:47.441Z,73.68
2022-11-16T11:34:54.657Z,54.35
2022-11-16T11:38:07.705Z,72.00
2022-11-16T11:41:19.865Z,46.67
2022-11-16T11:44:26.550Z,40.03
2022-11-16T11:47:58.086Z,36.10
2022-11-16T11:51:41.476Z,39.55
2022-11-16T11:54:50.058Z,45.45
2022-11-16T11:57:55.082Z,51.30
2022-11-16T12:01:25.682Z,41.53
2022-11-16T12:05:01.534Z,38.70
2022-11-16T12:08:13.100Z,34.83
2022-11-16T12:11:49.705Z,28.30
2022-11-16T12:15:11.288Z,38.28
2022-11-16T12:18:33.389Z,41.00
2022-11-16T12:22:19.575Z,41.83
2022-11-16T12:25:32.346Z,44.87
2022-11-16T12:28:51.524Z,40.78
2022-11-16T12:32:14.061Z,38.00
2022-11-16T12:35:20.790Z,33.00
2022-11-16T12:38:43.024Z,30.70
2022-11-16T12:42:04.597Z,33.78
2022-11-16T12:45:41.852Z,43.63
2022-11-16T12:48:45.533Z,43.92
2022-11-16T12:52:06.620Z,46.93
2022-11-16T12:55:27.830Z,44.90
2022-11-16T12:58:38.117Z,45.70
2022-11-16T13:02:09.312Z,43.85
2022-11-16T13:05:34.120Z,42.77
2022-11-16T13:09:04.499Z,40.90
2022-11-16T13:12:14.798Z,45.30
2022-11-16T13:15:26.241Z,45.05
2022-11-16T13:18:32.181Z,44.30
2022-11-16T13:21:47.507Z,44.92
2022-11-16T13:25:13.426Z,45.17
2022-11-16T13:28:33.377Z,46.90
2022-11-16T13:31:57.059Z,45.78
2022-11-16T13:35:01.929Z,61.10
2022-11-16T13:38:09.693Z,63.47
2022-11-16T13:41:36.477Z,63.80
2022-11-16T13:44:40.328Z,62.80
2022-11-16T13:47:55.741Z,52.93
2022-11-16T13:51:03.564Z,45.22
2022-11-16T13:57:34.327Z,46.85
2022-11-16T14:00:43.236Z,39.37
2022-11-16T14:03:52.431Z,29.15
2022-11-16T14:06:58.960Z,31.67
2022-11-16T14:10:06.497Z,30.15
2022-11-16T14:13:47.494Z,31.30
2022-11-16T14:16:52.302Z,29.08
2022-11-16T14:19:56.375Z,28.75
2022-11-16T14:23:02.972Z,28.80
2022-11-16T14:26:14.519Z,29.08
2022-11-16T14:29:21.504Z,27.20
2022-11-16T14:32:29.286Z,27.27
2022-11-16T14:35:36.000Z,28.65
2022-11-16T14:38:43.637Z,32.47
2022-11-16T14:41:48.699Z,31.17
2022-11-16T14:45:05.952Z,33.85
2022-11-16T14:48:21.837Z,30.70
2022-11-16T14:51:30.921Z,28.83
2022-11-16T14:54:47.676Z,35.17
2022-11-16T14:58:25.613Z,31.90
2022-11-16T15:01:33.890Z,33.45
2022-11-16T15:04:39.539Z,34.47
2022-11-16T15:07:45.235Z,48.67
2022-11-16T15:10:52.361Z,47.40
2022-11-16T15:13:56.874Z,51.90
2022-11-16T15:17:01.139Z,47.72
2022-11-16T15:20:14.135Z,46.28
2022-11-16T15:23:19.726Z,48.70
2022-11-16T15:26:25.135Z,49.22
2022-11-16T15:29:28.256Z,50.78
2022-11-16T15:32:38.915Z,53.08
2022-11-16T15:35:42.456Z,49.57
2022-11-16T15:38:46.426Z,49.28
2022-11-16T15:41:50.807Z,49.15
2022-11-16T15:44:55.398Z,46.80
2022-11-16T15:48:02.298Z,42.20
2022-11-16T15:51:05.387Z,39.15
2022-11-16T15:54:27.469Z,43.03
2022-11-16T15:57:31.453Z,44.45
2022-11-16T16:00:38.169Z,42.42
2022-11-16T16:03:54.541Z,36.23
2022-11-16T16:07:01.799Z,34.10
2022-11-16T16:10:25.591Z,28.10
2022-11-16T16:13:33.291Z,26.67
2022-11-16T16:16:39.342Z,30.03
2022-11-16T16:19:53.752Z,25.52
2022-11-16T16:23:13.954Z,29.90
2022-11-16T16:26:18.135Z,27.25
2022-11-16T16:29:22.027Z,30.38
2022-11-16T16:32:33.681Z,28.00
2022-11-16T16:35:38.378Z,24.80
2022-11-16T16:38:42.866Z,21.20
2022-11-16T16:41:46.724Z,20.73
2022-11-16T16:44:51.962Z,22.77
2022-11-16T16:47:55.580Z,22.20
2022-11-16T16:51:00.598Z,21.90
2022-11-16T16:54:04.955Z,19.23
2022-11-16T16:57:15.151Z,17.80
2022-11-16T17:00:19.224Z,19.55
2022-11-16T17:03:23.280Z,17.45
2022-11-16T17:06:27.787Z,19.30
2022-11-16T17:09:32.611Z,22.50
2022-11-16T17:12:36.324Z,20.20
2022-11-16T17:15:43.233Z,20.95
2022-11-16T17:18:48.215Z,19.48
2022-11-16T17:21:53.724Z,19.05
2022-11-16T17:24:57.467Z,18.50
2022-11-16T17:28:02.295Z,20.10
2022-11-16T17:31:10.607Z,16.77
2022-11-16T17:34:18.535Z,23.10
2022-11-16T17:37:22.911Z,19.47
2022-11-16T17:40:27.796Z,19.80
2022-11-16T17:43:34.913Z,18.15
2022-11-16T17:46:39.934Z,15.40
2022-11-16T17:49:44.249Z,15.70
2022-11-16T17:52:49.413Z,15.93
2022-11-16T17:55:54.605Z,14.77
2022-11-16T17:59:01.716Z,13.43
2022-11-16T18:02:11.512Z,15.93
2022-11-16T18:05:16.164Z,12.85
2022-11-16T18:08:19.754Z,13.25
2022-11-16T18:11:26.343Z,13.18
2022-11-16T18:14:30.847Z,13.93
2022-11-16T18:17:35.867Z,12.52
2022-11-16T18:20:43.207Z,13.13
2022-11-16T18:23:49.286Z,11.05
2022-11-16T18:26:52.792Z,10.27
2022-11-16T18:29:56.459Z,9.20
2022-11-16T18:33:00.929Z,9.57
2022-11-16T18:36:05.984Z,7.65
2022-11-16T18:39:10.229Z,8.02
2022-11-16T18:42:14.238Z,7.50
2022-11-16T18:45:18.638Z,8.25
2022-11-16T18:48:21.563Z,7.97
2022-11-16T18:51:26.853Z,8.13
2022-11-16T18:54:30.054Z,6.83
2022-11-16T18:57:33.239Z,6.50
2022-11-16T19:00:36.916Z,5.07
2022-11-16T19:03:41.083Z,4.47
2022-11-16T19:06:44.689Z,5.53
2022-11-16T19:09:48.302Z,4.93
2022-11-16T19:12:52.006Z,5.38
2022-11-16T19:15:56.287Z,5.43
2022-11-16T19:19:02.097Z,5.10
2022-11-16T19:22:05.641Z,5.00
2022-11-16T19:25:10.132Z,4.87
2022-11-16T19:28:13.726Z,4.20
2022-11-16T19:31:21.214Z,4.32
2022-11-16T19:34:26.742Z,4.10
2022-11-16T19:37:33.718Z,4.03
2022-11-16T19:40:38.507Z,4.20
2022-11-16T19:43:42.224Z,3.80
2022-11-16T19:46:45.479Z,4.30
2022-11-16T19:49:50.977Z,4.18
2022-11-16T19:52:54.008Z,4.40
2022-11-16T19:55:57.936Z,4.43
2022-11-16T19:59:01.556Z,7.85
2022-11-16T20:02:05.493Z,7.13
2022-11-16T20:05:09.587Z,7.07
2022-11-16T20:08:12.762Z,9.13
2022-11-16T20:11:30.581Z,7.25
2022-11-16T20:14:34.487Z,7.60
2022-11-16T20:17:38.055Z,8.73
2022-11-16T20:20:42.025Z,9.63
2022-11-16T20:23:46.070Z,8.90
2022-11-16T20:26:50.548Z,9.38
2022-11-16T20:29:54.113Z,9.95
2022-11-16T20:32:57.801Z,9.47
2022-11-16T20:36:06.758Z,9.55
2022-11-16T20:39:14.878Z,9.45
2022-11-16T20:42:20.321Z,11.10
2022-11-16T20:45:23.197Z,10.25
2022-11-16T20:48:26.757Z,9.90
2022-11-16T20:51:30.360Z,11.90
2022-11-16T20:54:33.988Z,14.93
2022-11-16T20:57:36.920Z,13.48
2022-11-16T21:00:40.597Z,15.43
2022-11-16T21:03:47.324Z,14.85
2022-11-16T21:06:51.107Z,13.50
2022-11-16T21:10:13.419Z,12.63
2022-11-16T21:13:36.463Z,15.35
2022-11-16T21:16:39.627Z,11.75
2022-11-16T21:19:59.483Z,13.13
2022-11-16T21:23:06.536Z,15.80
2022-11-16T21:26:14.556Z,12.73
2022-11-16T21:29:17.824Z,12.98
2022-11-16T21:32:21.778Z,18.42
2022-11-16T21:35:27.841Z,8.07
2022-11-16T21:38:32.969Z,18.88
2022-11-16T21:41:37.011Z,10.93
2022-11-16T21:44:42.743Z,11.02
2022-11-16T21:47:45.636Z,12.20
2022-11-16T21:50:48.516Z,14.90
2022-11-16T21:53:52.135Z,14.93
2022-11-16T21:56:55.780Z,17.08
2022-11-16T21:59:59.022Z,15.75
2022-11-16T22:03:02.771Z,13.30
2022-11-16T22:06:26.093Z,10.53
2022-11-16T22:09:29.621Z,11.00
2022-11-16T22:12:32.651Z,11.75
2022-11-16T22:15:35.505Z,7.20
2022-11-16T22:18:39.493Z,10.17
2022-11-16T22:21:42.568Z,6.47
2022-11-16T22:24:46.269Z,11.40
2022-11-16T22:28:19.089Z,10.77
2022-11-16T22:31:15.305Z,10.17
2022-11-16T22:34:18.952Z,10.88
2022-11-16T22:37:23.266Z,9.40
2022-11-16T22:40:26.559Z,10.82
2022-11-16T22:43:33.541Z,13.23
2022-11-16T22:46:37.348Z,13.20
2022-11-16T22:49:41.221Z,9.82
2022-11-16T22:52:44.064Z,11.20
2022-11-16T22:55:48.039Z,11.27
2022-11-16T22:58:51.881Z,11.90
2022-11-16T23:01:55.877Z,9.88
2022-11-16T23:04:58.698Z,8.80
2022-11-16T23:08:01.676Z,5.95
2022-11-16T23:11:25.982Z,2.70
2022-11-16T23:14:47.966Z,4.82
2022-11-16T23:17:51.911Z,5.20
2022-11-16T23:21:14.030Z,2.75
2022-11-16T23:24:35.494Z,4.00
2022-11-16T23:28:03.215Z,5.25
2022-11-16T23:31:06.120Z,9.00
2022-11-16T23:34:09.665Z,9.00
2022-11-16T23:37:13.656Z,12.38
2022-11-16T23:40:16.895Z,10.73
2022-11-16T23:43:39.153Z,9.20
2022-11-16T23:46:42.136Z,9.10
2022-11-16T23:49:45.119Z,5.78
2022-11-16T23:52:48.070Z,4.60
2022-11-16T23:55:52.030Z,3.60
2022-11-16T23:58:57.945Z,4.35
